sensor_id;sensor_type;location;lat;lon;timestamp;pressure;altitude;pressure_sealevel;temperature;humidity
12178;BME280;6152;48.728;9.256;2023-04-26T00:01:01;97121.25;;;6.10;100.00
12178;BME280;6152;48.728;9.256;2023-04-26T00:03:28;97114.53;;;6.06;100.00
12178;BME280;6152;48.728;9.256;2023-04-26T00:05:55;97114.78;;;6.00;100.00
12178;BME280;6152;48.728;9.256;2023-04-26T00:08:22;97113.25;;;5.96;100.00
12178;BME280;6152;48.728;9.256;2023-04-26T00:10:48;97117.00;;;5.89;100.00
12178;BME280;6152;48.728;9.256;2023-04-26T00:13:14;97119.78;;;5.83;100.00
12178;BME280;6152;48.728;9.256;2023-04-26T00:15:40;97124.94;;;5.83;100.00
12178;BME280;6152;48.728;9.256;2023-04-26T00:18:06;97122.50;;;5.80;100.00
12178;BME280;6152;48.728;9.256;2023-04-26T00:20:32;97122.03;;;5.92;100.00
12178;BME280;6152;48.728;9.256;2023-04-26T00:22:58;97122.22;;;5.87;100.00
12178;BME280;6152;48.728;9.256;2023-04-26T00:25:24;97105.81;;;5.88;100.00
12178;BME280;6152;48.728;9.256;2023-04-26T00:27:51;97117.94;;;5.86;100.00
12178;BME280;6152;48.728;9.256;2023-04-26T00:30:17;97117.31;;;5.80;100.00
12178;BME280;6152;48.728;9.256;2023-04-26T00:32:43;97115.81;;;5.76;100.00
12178;BME280;6152;48.728;9.256;2023-04-26T00:35:11;97118.56;;;5.71;100.00
12178;BME280;6152;48.728;9.256;2023-04-26T00:37:38;97113.44;;;5.70;100.00
12178;BME280;6152;48.728;9.256;2023-04-26T00:40:04;97111.00;;;5.67;100.00
12178;BME280;6152;48.728;9.256;2023-04-26T00:42:31;97107.78;;;5.62;100.00
12178;BME280;6152;48.728;9.256;2023-04-26T00:44:57;97112.16;;;5.59;100.00
12178;BME280;6152;48.728;9.256;2023-04-26T00:47:24;97117.53;;;5.55;100.00
12178;BME280;6152;48.728;9.256;2023-04-26T00:49:50;97112.28;;;5.56;100.00
12178;BME280;6152;48.728;9.256;2023-04-26T00:52:17;97116.84;;;5.50;100.00
12178;BME280;6152;48.728;9.256;2023-04-26T00:54:43;97118.00;;;5.43;100.00
12178;BME280;6152;48.728;9.256;2023-04-26T00:57:10;97113.69;;;5.43;100.00
12178;BME280;6152;48.728;9.256;2023-04-26T00:59:37;97118.03;;;5.41;100.00
12178;BME280;6152;48.728;9.256;2023-04-26T01:02:03;97114.72;;;5.39;100.00
12178;BME280;6152;48.728;9.256;2023-04-26T01:04:29;97120.75;;;5.38;100.00
12178;BME280;6152;48.728;9.256;2023-04-26T01:06:56;97129.41;;;5.37;100.00
12178;BME280;6152;48.728;9.256;2023-04-26T01:09:23;97126.13;;;5.34;100.00
12178;BME280;6152;48.728;9.256;2023-04-26T01:11:49;97133.13;;;5.30;100.00
12178;BME280;6152;48.728;9.256;2023-04-26T01:14:17;97127.13;;;5.30;100.00
12178;BME280;6152;48.728;9.256;2023-04-26T01:16:43;97127.97;;;5.30;100.00
12178;BME280;6152;48.728;9.256;2023-04-26T01:19:11;97131.31;;;5.32;100.00
12178;BME280;6152;48.728;9.256;2023-04-26T01:21:38;97125.53;;;5.27;100.00
12178;BME280;6152;48.728;9.256;2023-04-26T01:24:05;97128.09;;;5.27;100.00
12178;BME280;6152;48.728;9.256;2023-04-26T01:26:32;97118.13;;;5.18;100.00
12178;BME280;6152;48.728;9.256;2023-04-26T01:28:58;97123.53;;;5.12;100.00
12178;BME280;6152;48.728;9.256;2023-04-26T01:31:24;97120.41;;;5.04;100.00
12178;BME280;6152;48.728;9.256;2023-04-26T01:33:50;97118.06;;;4.98;100.00
12178;BME280;6152;48.728;9.256;2023-04-26T01:36:16;97113.91;;;4.94;100.00
12178;BME280;6152;48.728;9.256;2023-04-26T01:38:42;97122.44;;;4.96;100.00
12178;BME280;6152;48.728;9.256;2023-04-26T01:41:09;97117.63;;;4.87;100.00
12178;BME280;6152;48.728;9.256;2023-04-26T01:43:35;97116.97;;;4.82;100.00
12178;BME280;6152;48.728;9.256;2023-04-26T01:46:01;97118.88;;;4.77;100.00
12178;BME280;6152;48.728;9.256;2023-04-26T01:48:27;97119.88;;;4.73;100.00
12178;BME280;6152;48.728;9.256;2023-04-26T01:50:53;97119.28;;;4.66;100.00
12178;BME280;6152;48.728;9.256;2023-04-26T01:53:19;97114.41;;;4.58;100.00
12178;BME280;6152;48.728;9.256;2023-04-26T01:55:46;97121.34;;;4.56;100.00
12178;BME280;6152;48.728;9.256;2023-04-26T01:58:12;97120.50;;;4.56;100.00
12178;BME280;6152;48.728;9.256;2023-04-26T02:00:38;97118.13;;;4.51;100.00
12178;BME280;6152;48.728;9.256;2023-04-26T02:03:04;97124.16;;;4.50;100.00
12178;BME280;6152;48.728;9.256;2023-04-26T02:05:30;97125.06;;;4.49;100.00
12178;BME280;6152;48.728;9.256;2023-04-26T02:07:56;97120.78;;;4.48;100.00
12178;BME280;6152;48.728;9.256;2023-04-26T02:10:22;97119.91;;;4.49;100.00
12178;BME280;6152;48.728;9.256;2023-04-26T02:12:48;97116.38;;;4.52;100.00
12178;BME280;6152;48.728;9.256;2023-04-26T02:15:14;97118.00;;;4.54;100.00
12178;BME280;6152;48.728;9.256;2023-04-26T02:17:41;97118.13;;;4.51;100.00
12178;BME280;6152;48.728;9.256;2023-04-26T02:20:08;97116.56;;;4.47;100.00
12178;BME280;6152;48.728;9.256;2023-04-26T02:22:35;97117.56;;;4.43;100.00
12178;BME280;6152;48.728;9.256;2023-04-26T02:25:01;97111.66;;;4.40;100.00
12178;BME280;6152;48.728;9.256;2023-04-26T02:27:28;97107.47;;;4.37;100.00
12178;BME280;6152;48.728;9.256;2023-04-26T02:29:54;97116.97;;;4.35;100.00
12178;BME280;6152;48.728;9.256;2023-04-26T02:32:20;97115.41;;;4.31;100.00
12178;BME280;6152;48.728;9.256;2023-04-26T02:34:46;97113.78;;;4.29;100.00
12178;BME280;6152;48.728;9.256;2023-04-26T02:37:12;97114.84;;;4.23;100.00
12178;BME280;6152;48.728;9.256;2023-04-26T02:39:38;97118.53;;;4.16;100.00
12178;BME280;6152;48.728;9.256;2023-04-26T02:42:08;97113.50;;;4.13;100.00
12178;BME280;6152;48.728;9.256;2023-04-26T02:44:35;97118.75;;;4.10;100.00
12178;BME280;6152;48.728;9.256;2023-04-26T02:47:02;97121.50;;;4.05;100.00
12178;BME280;6152;48.728;9.256;2023-04-26T02:49:29;97115.59;;;4.02;100.00
12178;BME280;6152;48.728;9.256;2023-04-26T02:51:55;97126.84;;;3.99;100.00
12178;BME280;6152;48.728;9.256;2023-04-26T02:54:21;97127.88;;;3.94;100.00
12178;BME280;6152;48.728;9.256;2023-04-26T02:56:48;97123.72;;;3.90;100.00
12178;BME280;6152;48.728;9.256;2023-04-26T02:59:14;97120.41;;;3.86;100.00
12178;BME280;6152;48.728;9.256;2023-04-26T03:01:40;97127.34;;;3.86;100.00
12178;BME280;6152;48.728;9.256;2023-04-26T03:04:06;97124.75;;;3.86;100.00
12178;BME280;6152;48.728;9.256;2023-04-26T03:06:32;97134.03;;;3.90;100.00
12178;BME280;6152;48.728;9.256;2023-04-26T03:08:59;97131.38;;;3.93;100.00
12178;BME280;6152;48.728;9.256;2023-04-26T03:11:25;97119.16;;;3.98;100.00
12178;BME280;6152;48.728;9.256;2023-04-26T03:13:52;97124.22;;;4.01;100.00
12178;BME280;6152;48.728;9.256;2023-04-26T03:16:22;97123.22;;;4.05;100.00
12178;BME280;6152;48.728;9.256;2023-04-26T03:18:48;97116.22;;;4.08;100.00
12178;BME280;6152;48.728;9.256;2023-04-26T03:21:15;97118.81;;;4.08;100.00
12178;BME280;6152;48.728;9.256;2023-04-26T03:23:41;97122.22;;;4.09;100.00
12178;BME280;6152;48.728;9.256;2023-04-26T03:26:07;97121.38;;;4.08;100.00
12178;BME280;6152;48.728;9.256;2023-04-26T03:28:33;97117.19;;;4.06;100.00
12178;BME280;6152;48.728;9.256;2023-04-26T03:30:59;97134.28;;;4.07;100.00
12178;BME280;6152;48.728;9.256;2023-04-26T03:33:26;97129.25;;;4.04;100.00
12178;BME280;6152;48.728;9.256;2023-04-26T03:35:52;97136.19;;;4.02;100.00
12178;BME280;6152;48.728;9.256;2023-04-26T03:38:18;97136.31;;;3.99;100.00
12178;BME280;6152;48.728;9.256;2023-04-26T03:40:44;97137.25;;;3.96;100.00
12178;BME280;6152;48.728;9.256;2023-04-26T03:43:11;97132.16;;;3.95;100.00
12178;BME280;6152;48.728;9.256;2023-04-26T03:45:37;97129.69;;;3.92;100.00
12178;BME280;6152;48.728;9.256;2023-04-26T03:48:03;97131.47;;;3.90;100.00
12178;BME280;6152;48.728;9.256;2023-04-26T03:50:29;97128.22;;;3.85;100.00
12178;BME280;6152;48.728;9.256;2023-04-26T03:52:55;97127.50;;;3.80;100.00
12178;BME280;6152;48.728;9.256;2023-04-26T03:55:21;97116.56;;;3.75;100.00
12178;BME280;6152;48.728;9.256;2023-04-26T03:57:48;97126.94;;;3.72;100.00
12178;BME280;6152;48.728;9.256;2023-04-26T04:00:14;97121.09;;;3.67;100.00
12178;BME280;6152;48.728;9.256;2023-04-26T04:02:40;97123.88;;;3.61;100.00
12178;BME280;6152;48.728;9.256;2023-04-26T04:05:07;97117.25;;;3.53;100.00
12178;BME280;6152;48.728;9.256;2023-04-26T04:07:34;97119.13;;;3.48;100.00
12178;BME280;6152;48.728;9.256;2023-04-26T04:10:00;97124.38;;;3.45;100.00
12178;BME280;6152;48.728;9.256;2023-04-26T04:12:26;97124.56;;;3.39;100.00
12178;BME280;6152;48.728;9.256;2023-04-26T04:14:53;97127.28;;;3.35;100.00
12178;BME280;6152;48.728;9.256;2023-04-26T04:17:19;97128.22;;;3.32;100.00
12178;BME280;6152;48.728;9.256;2023-04-26T04:19:45;97134.19;;;3.34;100.00
12178;BME280;6152;48.728;9.256;2023-04-26T04:22:11;97125.66;;;3.32;100.00
12178;BME280;6152;48.728;9.256;2023-04-26T04:24:37;97130.88;;;3.31;100.00
12178;BME280;6152;48.728;9.256;2023-04-26T04:27:03;97125.75;;;3.29;100.00
12178;BME280;6152;48.728;9.256;2023-04-26T04:29:30;97124.13;;;3.27;100.00
12178;BME280;6152;48.728;9.256;2023-04-26T04:31:57;97125.88;;;3.26;100.00
12178;BME280;6152;48.728;9.256;2023-04-26T04:34:23;97131.00;;;3.26;100.00
12178;BME280;6152;48.728;9.256;2023-04-26T04:36:49;97135.28;;;3.27;100.00
12178;BME280;6152;48.728;9.256;2023-04-26T04:39:16;97133.50;;;3.28;100.00
12178;BME280;6152;48.728;9.256;2023-04-26T04:41:42;97133.50;;;3.28;100.00
12178;BME280;6152;48.728;9.256;2023-04-26T04:44:16;97134.41;;;3.27;100.00
12178;BME280;6152;48.728;9.256;2023-04-26T04:46:43;97137.78;;;3.29;100.00
12178;BME280;6152;48.728;9.256;2023-04-26T04:49:11;97136.81;;;3.31;100.00
12178;BME280;6152;48.728;9.256;2023-04-26T04:51:40;97139.25;;;3.36;100.00
12178;BME280;6152;48.728;9.256;2023-04-26T04:54:14;97138.31;;;3.38;100.00
12178;BME280;6152;48.728;9.256;2023-04-26T04:56:40;97143.31;;;3.43;100.00
12178;BME280;6152;48.728;9.256;2023-04-26T04:59:06;97146.66;;;3.46;100.00
12178;BME280;6152;48.728;9.256;2023-04-26T05:01:33;97146.44;;;3.52;100.00
12178;BME280;6152;48.728;9.256;2023-04-26T05:04:01;97146.22;;;3.58;100.00
12178;BME280;6152;48.728;9.256;2023-04-26T05:06:27;97156.34;;;3.65;100.00
12178;BME280;6152;48.728;9.256;2023-04-26T05:08:54;97155.19;;;3.73;100.00
12178;BME280;6152;48.728;9.256;2023-04-26T05:11:21;97159.13;;;3.83;100.00
12178;BME280;6152;48.728;9.256;2023-04-26T05:13:47;97155.31;;;3.95;100.00
12178;BME280;6152;48.728;9.256;2023-04-26T05:16:13;97165.19;;;4.07;100.00
12178;BME280;6152;48.728;9.256;2023-04-26T05:18:40;97159.63;;;4.19;100.00
12178;BME280;6152;48.728;9.256;2023-04-26T05:21:06;97164.25;;;4.34;100.00
12178;BME280;6152;48.728;9.256;2023-04-26T05:23:32;97167.00;;;4.53;100.00
12178;BME280;6152;48.728;9.256;2023-04-26T05:26:05;97163.88;;;4.68;100.00
12178;BME280;6152;48.728;9.256;2023-04-26T05:28:31;97167.53;;;4.86;100.00
12178;BME280;6152;48.728;9.256;2023-04-26T05:30:58;97167.19;;;4.95;100.00
12178;BME280;6152;48.728;9.256;2023-04-26T05:33:26;97172.09;;;5.01;100.00
12178;BME280;6152;48.728;9.256;2023-04-26T05:35:53;97175.25;;;5.09;100.00
12178;BME280;6152;48.728;9.256;2023-04-26T05:38:20;97180.22;;;5.14;100.00
12178;BME280;6152;48.728;9.256;2023-04-26T05:40:46;97176.44;;;5.22;100.00
12178;BME280;6152;48.728;9.256;2023-04-26T05:43:13;97177.78;;;5.32;100.00
12178;BME280;6152;48.728;9.256;2023-04-26T05:45:39;97183.47;;;5.40;100.00
12178;BME280;6152;48.728;9.256;2023-04-26T05:48:06;97176.09;;;5.53;100.00
12178;BME280;6152;48.728;9.256;2023-04-26T05:50:32;97182.66;;;5.62;100.00
12178;BME280;6152;48.728;9.256;2023-04-26T05:52:58;97188.28;;;5.71;100.00
12178;BME280;6152;48.728;9.256;2023-04-26T05:55:24;97195.72;;;5.79;100.00
12178;BME280;6152;48.728;9.256;2023-04-26T05:57:50;97195.41;;;5.86;100.00
12178;BME280;6152;48.728;9.256;2023-04-26T06:00:17;97193.94;;;6.01;100.00
12178;BME280;6152;48.728;9.256;2023-04-26T06:02:45;97192.94;;;6.05;100.00
12178;BME280;6152;48.728;9.256;2023-04-26T06:05:11;97191.78;;;6.12;100.00
12178;BME280;6152;48.728;9.256;2023-04-26T06:07:38;97193.66;;;6.08;100.00
12178;BME280;6152;48.728;9.256;2023-04-26T06:10:04;97196.22;;;6.08;100.00
12178;BME280;6152;48.728;9.256;2023-04-26T06:12:30;97198.75;;;6.10;100.00
12178;BME280;6152;48.728;9.256;2023-04-26T06:14:57;97197.53;;;6.19;100.00
12178;BME280;6152;48.728;9.256;2023-04-26T06:17:23;97203.78;;;6.33;100.00
12178;BME280;6152;48.728;9.256;2023-04-26T06:19:50;97195.63;;;6.42;100.00
12178;BME280;6152;48.728;9.256;2023-04-26T06:22:16;97202.19;;;6.51;100.00
12178;BME280;6152;48.728;9.256;2023-04-26T06:24:42;97204.53;;;6.55;100.00
12178;BME280;6152;48.728;9.256;2023-04-26T06:27:08;97206.53;;;6.69;100.00
12178;BME280;6152;48.728;9.256;2023-04-26T06:29:34;97201.09;;;6.75;100.00
12178;BME280;6152;48.728;9.256;2023-04-26T06:32:00;97206.50;;;6.89;100.00
12178;BME280;6152;48.728;9.256;2023-04-26T06:34:26;97204.50;;;6.96;100.00
12178;BME280;6152;48.728;9.256;2023-04-26T06:36:53;97210.00;;;7.07;100.00
12178;BME280;6152;48.728;9.256;2023-04-26T06:39:19;97214.06;;;7.13;100.00
12178;BME280;6152;48.728;9.256;2023-04-26T06:41:45;97219.66;;;7.22;100.00
12178;BME280;6152;48.728;9.256;2023-04-26T06:44:11;97224.00;;;7.40;100.00
12178;BME280;6152;48.728;9.256;2023-04-26T06:46:37;97224.53;;;7.66;100.00
12178;BME280;6152;48.728;9.256;2023-04-26T06:49:03;97225.91;;;7.73;100.00
12178;BME280;6152;48.728;9.256;2023-04-26T06:51:29;97223.81;;;7.81;100.00
12178;BME280;6152;48.728;9.256;2023-04-26T06:53:56;97228.31;;;7.94;100.00
12178;BME280;6152;48.728;9.256;2023-04-26T06:56:25;97224.16;;;8.09;100.00
12178;BME280;6152;48.728;9.256;2023-04-26T06:59:18;97226.53;;;8.13;100.00
12178;BME280;6152;48.728;9.256;2023-04-26T07:01:44;97223.53;;;8.21;100.00
12178;BME280;6152;48.728;9.256;2023-04-26T07:04:10;97219.59;;;8.31;100.00
12178;BME280;6152;48.728;9.256;2023-04-26T07:06:37;97224.94;;;8.28;100.00
12178;BME280;6152;48.728;9.256;2023-04-26T07:09:04;97210.59;;;8.38;100.00
12178;BME280;6152;48.728;9.256;2023-04-26T07:11:31;97212.50;;;8.52;100.00
12178;BME280;6152;48.728;9.256;2023-04-26T07:13:57;97210.44;;;8.58;100.00
12178;BME280;6152;48.728;9.256;2023-04-26T07:16:23;97208.78;;;8.57;100.00
12178;BME280;6152;48.728;9.256;2023-04-26T07:18:49;97204.19;;;8.62;100.00
12178;BME280;6152;48.728;9.256;2023-04-26T07:21:17;97201.16;;;8.54;100.00
12178;BME280;6152;48.728;9.256;2023-04-26T07:23:44;97204.97;;;8.47;100.00
12178;BME280;6152;48.728;9.256;2023-04-26T07:26:11;97204.97;;;8.47;100.00
12178;BME280;6152;48.728;9.256;2023-04-26T07:28:37;97206.47;;;8.17;95.03
12178;BME280;6152;48.728;9.256;2023-04-26T07:31:03;97197.78;;;8.18;100.00
12178;BME280;6152;48.728;9.256;2023-04-26T07:33:29;97199.94;;;8.27;100.00
12178;BME280;6152;48.728;9.256;2023-04-26T07:35:57;97205.91;;;8.10;100.00
12178;BME280;6152;48.728;9.256;2023-04-26T07:38:24;97199.47;;;8.02;100.00
12178;BME280;6152;48.728;9.256;2023-04-26T07:40:51;97207.91;;;7.88;100.00
12178;BME280;6152;48.728;9.256;2023-04-26T07:43:18;97207.50;;;7.79;100.00
12178;BME280;6152;48.728;9.256;2023-04-26T07:45:44;97204.63;;;7.85;100.00
12178;BME280;6152;48.728;9.256;2023-04-26T07:48:10;97203.72;;;8.03;100.00
12178;BME280;6152;48.728;9.256;2023-04-26T07:50:36;97209.91;;;8.35;100.00
12178;BME280;6152;48.728;9.256;2023-04-26T07:53:03;97204.03;;;8.48;94.95
12178;BME280;6152;48.728;9.256;2023-04-26T07:55:29;97205.88;;;8.63;79.96
12178;BME280;6152;48.728;9.256;2023-04-26T07:57:55;97200.94;;;9.07;92.96
12178;BME280;6152;48.728;9.256;2023-04-26T08:00:21;97194.34;;;9.49;93.47
12178;BME280;6152;48.728;9.256;2023-04-26T08:02:48;97202.28;;;9.93;87.86
12178;BME280;6152;48.728;9.256;2023-04-26T08:05:14;97206.66;;;9.77;85.35
12178;BME280;6152;48.728;9.256;2023-04-26T08:07:41;97214.00;;;10.00;78.06
12178;BME280;6152;48.728;9.256;2023-04-26T08:10:08;97208.28;;;10.09;82.80
12178;BME280;6152;48.728;9.256;2023-04-26T08:12:36;97204.28;;;9.88;73.38
12178;BME280;6152;48.728;9.256;2023-04-26T08:15:04;97200.09;;;10.17;78.98
12178;BME280;6152;48.728;9.256;2023-04-26T08:17:31;97203.22;;;10.37;79.05
12178;BME280;6152;48.728;9.256;2023-04-26T08:19:57;97207.53;;;10.67;79.26
12178;BME280;6152;48.728;9.256;2023-04-26T08:22:24;97206.63;;;10.96;75.33
12178;BME280;6152;48.728;9.256;2023-04-26T08:24:53;97205.69;;;10.69;69.94
12178;BME280;6152;48.728;9.256;2023-04-26T08:27:19;97214.63;;;10.93;72.69
12178;BME280;6152;48.728;9.256;2023-04-26T08:29:46;97204.94;;;10.95;73.02
12178;BME280;6152;48.728;9.256;2023-04-26T08:32:12;97203.06;;;11.25;70.38
12178;BME280;6152;48.728;9.256;2023-04-26T08:34:38;97202.66;;;11.45;66.18
12178;BME280;6152;48.728;9.256;2023-04-26T08:37:07;97201.91;;;11.72;67.27
12178;BME280;6152;48.728;9.256;2023-04-26T08:39:33;97204.38;;;12.00;66.37
12178;BME280;6152;48.728;9.256;2023-04-26T08:42:15;97195.81;;;13.51;61.18
12178;BME280;6152;48.728;9.256;2023-04-26T08:44:43;97198.78;;;15.21;52.13
12178;BME280;6152;48.728;9.256;2023-04-26T08:47:17;97187.78;;;16.46;45.78
12178;BME280;6152;48.728;9.256;2023-04-26T08:49:50;97182.22;;;17.01;42.37
12178;BME280;6152;48.728;9.256;2023-04-26T08:52:19;97180.66;;;16.69;44.94
12178;BME280;6152;48.728;9.256;2023-04-26T08:54:50;97187.88;;;16.76;45.11
12178;BME280;6152;48.728;9.256;2023-04-26T08:57:17;97183.94;;;16.50;42.81
12178;BME280;6152;48.728;9.256;2023-04-26T08:59:44;97191.50;;;16.43;44.23
12178;BME280;6152;48.728;9.256;2023-04-26T09:02:22;97191.03;;;16.38;42.81
12178;BME280;6152;48.728;9.256;2023-04-26T09:04:49;97182.28;;;16.70;44.05
12178;BME280;6152;48.728;9.256;2023-04-26T09:07:34;97187.09;;;17.46;39.27
12178;BME280;6152;48.728;9.256;2023-04-26T09:10:01;97185.22;;;18.16;39.62
12178;BME280;6152;48.728;9.256;2023-04-26T09:12:29;97184.78;;;18.31;37.78
12178;BME280;6152;48.728;9.256;2023-04-26T09:14:55;97179.13;;;19.20;39.18
12178;BME280;6152;48.728;9.256;2023-04-26T09:17:39;97190.19;;;19.88;37.67
12178;BME280;6152;48.728;9.256;2023-04-26T09:20:33;97175.66;;;19.10;36.37
12178;BME280;6152;48.728;9.256;2023-04-26T09:23:07;97176.47;;;18.74;38.27
12178;BME280;6152;48.728;9.256;2023-04-26T09:25:33;97170.16;;;16.99;38.51
12178;BME280;6152;48.728;9.256;2023-04-26T09:28:01;97170.22;;;15.83;41.38
12178;BME280;6152;48.728;9.256;2023-04-26T09:30:29;97174.13;;;15.56;42.16
12178;BME280;6152;48.728;9.256;2023-04-26T09:33:02;97168.88;;;14.79;43.47
12178;BME280;6152;48.728;9.256;2023-04-26T09:35:42;97156.84;;;14.65;43.94
12178;BME280;6152;48.728;9.256;2023-04-26T09:38:10;97157.31;;;14.00;45.63
12178;BME280;6152;48.728;9.256;2023-04-26T09:40:48;97154.00;;;13.51;46.78
12178;BME280;6152;48.728;9.256;2023-04-26T09:43:18;97157.09;;;13.20;47.07
12178;BME280;6152;48.728;9.256;2023-04-26T09:45:51;97151.13;;;13.05;48.32
12178;BME280;6152;48.728;9.256;2023-04-26T09:48:26;97157.00;;;12.96;48.86
12178;BME280;6152;48.728;9.256;2023-04-26T09:51:15;97158.28;;;12.78;51.26
12178;BME280;6152;48.728;9.256;2023-04-26T09:53:45;97154.00;;;12.89;50.60
12178;BME280;6152;48.728;9.256;2023-04-26T09:56:17;97158.47;;;12.49;50.18
12178;BME280;6152;48.728;9.256;2023-04-26T10:01:17;97152.91;;;12.41;52.62
12178;BME280;6152;48.728;9.256;2023-04-26T10:03:44;97162.13;;;12.59;52.37
12178;BME280;6152;48.728;9.256;2023-04-26T10:06:14;97166.84;;;12.54;51.83
12178;BME280;6152;48.728;9.256;2023-04-26T10:08:41;97163.06;;;12.58;52.45
12178;BME280;6152;48.728;9.256;2023-04-26T10:11:07;97151.25;;;12.65;52.90
12178;BME280;6152;48.728;9.256;2023-04-26T10:13:36;97158.28;;;12.65;51.39
12178;BME280;6152;48.728;9.256;2023-04-26T10:16:02;97141.94;;;12.87;50.40
12178;BME280;6152;48.728;9.256;2023-04-26T10:18:30;97142.69;;;12.89;49.42
12178;BME280;6152;48.728;9.256;2023-04-26T10:20:59;97141.47;;;14.26;48.63
12178;BME280;6152;48.728;9.256;2023-04-26T10:23:27;97140.50;;;16.66;42.73
12178;BME280;6152;48.728;9.256;2023-04-26T10:25:54;97135.13;;;17.69;37.84
12178;BME280;6152;48.728;9.256;2023-04-26T10:31:06;97135.28;;;20.09;36.28
12178;BME280;6152;48.728;9.256;2023-04-26T10:33:33;97131.97;;;21.53;31.70
12178;BME280;6152;48.728;9.256;2023-04-26T10:36:07;97121.75;;;21.75;30.81
12178;BME280;6152;48.728;9.256;2023-04-26T10:38:35;97128.81;;;22.16;31.00
12178;BME280;6152;48.728;9.256;2023-04-26T10:41:32;97124.97;;;22.99;29.54
12178;BME280;6152;48.728;9.256;2023-04-26T10:44:38;97118.84;;;22.10;29.58
12178;BME280;6152;48.728;9.256;2023-04-26T10:47:06;97122.53;;;21.17;30.37
12178;BME280;6152;48.728;9.256;2023-04-26T10:49:46;97122.78;;;19.84;33.27
12178;BME280;6152;48.728;9.256;2023-04-26T10:52:18;97111.41;;;18.36;34.80
12178;BME280;6152;48.728;9.256;2023-04-26T10:54:55;97123.06;;;17.66;36.58
12178;BME280;6152;48.728;9.256;2023-04-26T10:57:23;97116.06;;;17.55;37.70
12178;BME280;6152;48.728;9.256;2023-04-26T11:02:58;97121.13;;;16.88;37.72
12178;BME280;6152;48.728;9.256;2023-04-26T11:05:52;97124.09;;;16.53;39.50
12178;BME280;6152;48.728;9.256;2023-04-26T11:08:29;97116.34;;;15.79;39.06
12178;BME280;6152;48.728;9.256;2023-04-26T11:11:16;97117.75;;;15.51;41.24
12178;BME280;6152;48.728;9.256;2023-04-26T11:13:45;97117.38;;;15.44;40.13
12178;BME280;6152;48.728;9.256;2023-04-26T11:16:15;97108.44;;;16.31;38.87
12178;BME280;6152;48.728;9.256;2023-04-26T11:18:43;97094.63;;;16.71;39.28
12178;BME280;6152;48.728;9.256;2023-04-26T11:21:10;97109.47;;;17.21;37.25
12178;BME280;6152;48.728;9.256;2023-04-26T11:23:38;97100.84;;;17.49;37.75
12178;BME280;6152;48.728;9.256;2023-04-26T11:26:06;97093.50;;;16.52;37.98
12178;BME280;6152;48.728;9.256;2023-04-26T11:28:34;97098.75;;;15.90;38.92
12178;BME280;6152;48.728;9.256;2023-04-26T11:31:03;97090.38;;;16.58;39.02
12178;BME280;6152;48.728;9.256;2023-04-26T11:33:29;97081.00;;;17.45;37.80
12178;BME280;6152;48.728;9.256;2023-04-26T11:35:57;97073.00;;;18.52;36.96
12178;BME280;6152;48.728;9.256;2023-04-26T11:38:27;97064.44;;;19.59;34.18
12178;BME280;6152;48.728;9.256;2023-04-26T11:40:59;97058.88;;;22.01;31.83
12178;BME280;6152;48.728;9.256;2023-04-26T11:43:36;97064.84;;;22.11;29.68
12178;BME280;6152;48.728;9.256;2023-04-26T11:46:03;97059.38;;;22.37;29.63
12178;BME280;6152;48.728;9.256;2023-04-26T11:48:30;97056.25;;;22.09;29.47
12178;BME280;6152;48.728;9.256;2023-04-26T11:50:59;97045.91;;;21.74;29.33
12178;BME280;6152;48.728;9.256;2023-04-26T11:53:34;97049.38;;;21.66;30.29
12178;BME280;6152;48.728;9.256;2023-04-26T11:56:03;97050.19;;;21.66;29.84
12178;BME280;6152;48.728;9.256;2023-04-26T11:58:30;97053.56;;;22.17;30.00
12178;BME280;6152;48.728;9.256;2023-04-26T12:00:58;97048.22;;;22.82;29.21
12178;BME280;6152;48.728;9.256;2023-04-26T12:03:31;97049.66;;;23.31;27.20
12178;BME280;6152;48.728;9.256;2023-04-26T12:06:00;97043.59;;;23.14;27.61
12178;BME280;6152;48.728;9.256;2023-04-26T12:08:26;97037.00;;;22.15;28.12
12178;BME280;6152;48.728;9.256;2023-04-26T12:10:53;97032.63;;;21.49;28.62
12178;BME280;6152;48.728;9.256;2023-04-26T12:13:20;97040.72;;;20.64;29.89
12178;BME280;6152;48.728;9.256;2023-04-26T12:15:46;97037.44;;;20.01;31.68
12178;BME280;6152;48.728;9.256;2023-04-26T12:18:12;97049.25;;;18.99;32.69
12178;BME280;6152;48.728;9.256;2023-04-26T12:20:40;97049.28;;;18.52;33.49
12178;BME280;6152;48.728;9.256;2023-04-26T12:25:38;97042.69;;;18.66;34.91
12178;BME280;6152;48.728;9.256;2023-04-26T12:28:07;97047.13;;;18.65;33.99
12178;BME280;6152;48.728;9.256;2023-04-26T12:30:37;97039.84;;;18.40;33.70
12178;BME280;6152;48.728;9.256;2023-04-26T12:33:03;97038.41;;;17.90;34.40
12178;BME280;6152;48.728;9.256;2023-04-26T12:35:30;97038.06;;;17.35;36.24
12178;BME280;6152;48.728;9.256;2023-04-26T12:37:57;97030.81;;;16.99;35.84
12178;BME280;6152;48.728;9.256;2023-04-26T12:40:26;97034.28;;;16.18;37.29
12178;BME280;6152;48.728;9.256;2023-04-26T12:42:52;97027.50;;;15.74;38.30
12178;BME280;6152;48.728;9.256;2023-04-26T12:45:21;97038.56;;;15.03;38.15
12178;BME280;6152;48.728;9.256;2023-04-26T12:47:48;97036.22;;;14.66;38.77
12178;BME280;6152;48.728;9.256;2023-04-26T12:50:15;97027.34;;;15.01;39.33
12178;BME280;6152;48.728;9.256;2023-04-26T12:52:42;97035.47;;;15.52;39.99
12178;BME280;6152;48.728;9.256;2023-04-26T12:55:10;97026.16;;;15.80;39.71
12178;BME280;6152;48.728;9.256;2023-04-26T12:57:38;97022.69;;;15.79;38.38
12178;BME280;6152;48.728;9.256;2023-04-26T13:00:05;97021.22;;;15.86;37.68
12178;BME280;6152;48.728;9.256;2023-04-26T13:02:32;97017.28;;;15.28;39.31
12178;BME280;6152;48.728;9.256;2023-04-26T13:04:59;97019.38;;;15.34;40.01
12178;BME280;6152;48.728;9.256;2023-04-26T13:07:32;97020.41;;;15.11;40.03
12178;BME280;6152;48.728;9.256;2023-04-26T13:09:59;97018.72;;;15.21;40.05
12178;BME280;6152;48.728;9.256;2023-04-26T13:12:26;97021.81;;;15.26;40.32
12178;BME280;6152;48.728;9.256;2023-04-26T13:14:53;97020.16;;;15.25;39.72
12178;BME280;6152;48.728;9.256;2023-04-26T13:17:22;97023.44;;;14.95;39.96
12178;BME280;6152;48.728;9.256;2023-04-26T13:19:49;97020.97;;;14.72;40.70
12178;BME280;6152;48.728;9.256;2023-04-26T13:22:16;97022.75;;;14.49;40.29
12178;BME280;6152;48.728;9.256;2023-04-26T13:24:42;97015.97;;;14.69;40.93
12178;BME280;6152;48.728;9.256;2023-04-26T13:27:08;97015.00;;;14.58;41.64